Madrid El Retiro

latitud = 40° 24' 40''N | longitud = 003° 40' 41''W
667 metros sobre el nivel del mar | datos mensuales

Fecha, hora, temperatura, viento dirección y velocidad, humedad y presión.

  • 25-09-2017 00:00:00 | 20.90°C | Oeste |6.00 km/h | 49.00% | 942.60 hPa
  • 24-09-2017 23:00:00 | 22.20°C | Sudoeste |3.00 km/h | 45.00% | 942.40 hPa
  • 24-09-2017 22:00:00 | 22.70°C | Oeste |5.00 km/h | 43.00% | 942.50 hPa
  • 24-09-2017 21:00:00 | 24.10°C | Oeste |6.00 km/h | 40.00% | 941.90 hPa
  • 24-09-2017 20:00:00 | 25.80°C | Oeste |6.00 km/h | 37.00% | 942.20 hPa
  • 24-09-2017 19:00:00 | 27.90°C | Oeste |8.00 km/h | 35.00% | 942.10 hPa
  • 24-09-2017 18:00:00 | 28.40°C | Sudoeste |6.00 km/h | 36.00% | 942.10 hPa
  • 24-09-2017 17:00:00 | 28.80°C | Oeste |6.00 km/h | 36.00% | 942.70 hPa
  • 24-09-2017 16:00:00 | 29.20°C | Sudoeste |4.00 km/h | 37.00% | 943.10 hPa
  • 24-09-2017 15:00:00 | 28.80°C | Sur |5.00 km/h | 39.00% | 943.40 hPa
  • 24-09-2017 14:00:00 | 26.10°C | Sudoeste |3.00 km/h | 43.00% | 943.30 hPa
  • 24-09-2017 13:00:00 | 24.40°C | Calma |0.00 km/h | 47.00% | 944.30 hPa
  • 24-09-2017 12:00:00 | 22.40°C | Calma |0.00 km/h | 50.00% | 944.50 hPa
  • 24-09-2017 11:00:00 | 20.10°C | Este |3.00 km/h | 53.00% | 944.60 hPa
  • 24-09-2017 10:00:00 | 18.50°C | Este |2.00 km/h | 55.00% | 944.10 hPa
  • 24-09-2017 09:00:00 | 17.20°C | Nordeste |3.00 km/h | 56.00% | 943.40 hPa
  • 24-09-2017 08:00:00 | 17.10°C | Nordeste |5.00 km/h | 55.00% | 943.00 hPa
  • 24-09-2017 07:00:00 | 17.70°C | Nordeste |5.00 km/h | 53.00% | 942.60 hPa
  • 24-09-2017 06:00:00 | 17.80°C | Nordeste |4.00 km/h | 55.00% | 942.60 hPa
  • 24-09-2017 05:00:00 | 17.30°C | Nordeste |3.00 km/h | 59.00% | 942.40 hPa
  • 24-09-2017 04:00:00 | 17.20°C | Calma |0.00 km/h | 60.00% | 942.80 hPa
  • 24-09-2017 03:00:00 | 18.60°C | Calma |0.00 km/h | 55.00% | 942.80 hPa
  • 24-09-2017 02:00:00 | 19.00°C | Noroeste |3.00 km/h | 54.00% | 942.50 hPa
  • 24-09-2017 01:00:00 | 19.90°C | Calma |0.00 km/h | 50.00% | 942.40 hPa